This is the latest recevied weather packets stored in our database for station/object HG8GL-6. If no packets are shown the sender has not sent any weather packets the latest 1 day(s).
| Time | Temp. | Humidity | Pressure | Rain* | Wind** | Luminosity | Snow |
|---|---|---|---|---|---|---|---|
| 1836274327 | 13.89° C | 70% | 1026.4 hPa | 0 mm | 0 m/s | - | - |
| 1836274178 | 13.89° C | 70% | 1026.4 hPa | 0 mm | 0 m/s | - | - |
| 1778035006 | 12.22° C | 65% | 1012 hPa | 0 mm | 0 m/s | - | - |
| 1778034376 | 12.22° C | 65% | 1012 hPa | 0 mm | 0 m/s | - | - |
| 1778033746 | 12.22° C | 65% | 1013 hPa | 0 mm | 0 m/s | - | - |
| 1778033116 | 12.22° C | 64% | 1013 hPa | 0 mm | 0 m/s | - | - |
| 1778032516 | 12.78° C | 63% | 1013 hPa | 0 mm | 0 m/s | - | - |
| 1778031856 | 12.78° C | 62% | 1012 hPa | 0 mm | 0 m/s | - | - |
| 1778031226 | 12.78° C | 61% | 1013 hPa | 0 mm | 0 m/s | - | - |
| 1778030596 | 12.78° C | 60% | 1012 hPa | 0 mm | 0 m/s | - | - |
| 1778029996 | 13.33° C | 60% | 1012 hPa | 0 mm | 0 m/s | - | - |
| 1778029396 | 13.33° C | 58% | 1012 hPa | 0 mm | 0 m/s | - | - |
| 1778028796 | 13.89° C | 57% | 1012 hPa | 0 mm | 0 m/s | - | - |
| 1778028196 | 13.89° C | 56% | 1012 hPa | 0 mm | 0 m/s | - | - |
| 1778027596 | 14.44° C | 55% | 1012 hPa | 0 mm | 0 m/s | - | - |
| 1778026966 | 14.44° C | 55% | 1012 hPa | 0 mm | 0 m/s | - | - |
| 1778026336 | 15° C | 54% | 1012 hPa | 0 mm | 0 m/s | - | - |
| 1778025736 | 15.56° C | 55% | 1012 hPa | 0 mm | 0 m/s | - | - |
| 1778025106 | 15.56° C | 56% | 1012 hPa | 0 mm | 0 m/s | - | - |
| 1778024476 | 15.56° C | 56% | 1012 hPa | 0 mm | 0 m/s | - | - |
| 1778023876 | 15.56° C | 55% | 1012 hPa | 0 mm | 0 m/s | - | - |
| 1778023246 | 15.56° C | 55% | 1012 hPa | 0 mm | 0 m/s | - | - |
| 1778022646 | 15.56° C | 56% | 1012 hPa | 0 mm | 0 m/s | - | - |
| 1778022016 | 15° C | 55% | 1012 hPa | 0 mm | 0 m/s | - | - |
| 1778021386 | 14.44° C | 49% | 1012 hPa | 0 mm | 0 m/s | - | - |
* Rain latest hour (hover to see other rain measurements)
** Current wind speed in m/s (hover to see current wind gust speed)